createdAt,value
2023-04-27T00:02:26.753Z,100093.00
2023-04-27T00:04:57.253Z,100064.00
2023-04-27T00:07:27.270Z,100073.00
2023-04-27T00:10:01.930Z,100078.00
2023-04-27T00:12:32.816Z,100077.00
2023-04-27T00:15:03.055Z,100076.00
2023-04-27T00:17:36.092Z,100077.00
2023-04-27T00:20:07.626Z,100076.00
2023-04-27T00:22:36.632Z,100084.00
2023-04-27T00:25:14.874Z,100075.00
2023-04-27T00:27:50.427Z,100076.00
2023-04-27T00:30:21.502Z,100064.00
2023-04-27T00:32:54.815Z,100074.00
2023-04-27T00:35:24.561Z,100066.00
2023-04-27T00:37:55.492Z,100074.00
2023-04-27T00:40:24.357Z,100067.00
2023-04-27T00:42:54.216Z,100062.00
2023-04-27T00:45:30.628Z,100061.00
2023-04-27T00:48:00.941Z,100058.00
2023-04-27T00:50:31.294Z,100051.00
2023-04-27T00:53:01.993Z,100056.00
2023-04-27T00:55:32.905Z,100059.00
2023-04-27T00:58:12.243Z,100067.00
2023-04-27T01:01:01.382Z,100068.00
2023-04-27T01:03:40.754Z,100060.00
2023-04-27T01:06:14.644Z,100067.00
2023-04-27T01:09:08.396Z,100065.00
2023-04-27T01:11:37.311Z,100063.00
2023-04-27T01:14:08.655Z,100056.00
2023-04-27T01:16:40.736Z,100060.00
2023-04-27T01:19:12.111Z,100053.00
2023-04-27T01:21:40.950Z,100054.00
2023-04-27T01:24:11.933Z,100048.00
2023-04-27T01:26:41.798Z,100047.00
2023-04-27T01:29:12.271Z,100051.00
2023-04-27T01:31:41.837Z,100043.00
2023-04-27T01:34:20.964Z,100050.00
2023-04-27T01:37:01.453Z,100048.00
2023-04-27T01:39:38.392Z,100060.00
2023-04-27T01:42:07.738Z,100063.00
2023-04-27T01:44:36.727Z,100064.00
2023-04-27T01:47:19.638Z,100065.00
2023-04-27T01:49:51.418Z,100059.00
2023-04-27T01:52:29.339Z,100062.00
2023-04-27T01:55:00.486Z,100056.00
2023-04-27T01:57:31.108Z,100055.00
2023-04-27T02:00:01.175Z,100053.00
2023-04-27T02:02:43.886Z,100056.00
2023-04-27T02:05:13.431Z,100065.00
2023-04-27T02:08:15.804Z,100094.00
2023-04-27T02:10:46.067Z,100111.00
2023-04-27T02:13:32.097Z,100094.00
2023-04-27T02:16:02.287Z,100111.00
2023-04-27T02:18:32.603Z,100128.00
2023-04-27T02:21:02.734Z,100113.00
2023-04-27T02:23:42.009Z,100109.00
2023-04-27T02:26:18.875Z,100107.00
2023-04-27T02:29:20.253Z,100097.00
2023-04-27T02:31:50.849Z,100110.00
2023-04-27T02:34:30.490Z,100111.00
2023-04-27T02:37:01.499Z,100126.00
2023-04-27T02:39:33.438Z,100121.00
2023-04-27T02:42:07.465Z,100126.00
2023-04-27T02:44:53.894Z,100124.00
2023-04-27T02:47:23.692Z,100116.00
2023-04-27T02:50:01.669Z,100128.00
2023-04-27T02:52:33.713Z,100122.00
2023-04-27T02:55:02.849Z,100125.00
2023-04-27T02:57:36.874Z,100123.00
2023-04-27T03:00:11.287Z,100118.00
2023-04-27T03:02:51.100Z,100126.00
2023-04-27T03:05:36.431Z,100125.00
2023-04-27T03:08:05.949Z,100120.00
2023-04-27T03:10:36.178Z,100139.00
2023-04-27T03:13:07.674Z,100139.00
2023-04-27T03:15:42.601Z,100139.00
2023-04-27T03:18:13.959Z,100140.00
2023-04-27T03:21:08.856Z,100137.00
2023-04-27T03:23:41.852Z,100144.00
2023-04-27T03:26:12.504Z,100146.00
2023-04-27T03:28:46.025Z,100145.00
2023-04-27T03:31:17.970Z,100142.00
2023-04-27T03:33:48.201Z,100162.00
2023-04-27T03:36:17.484Z,100140.00
2023-04-27T03:38:47.579Z,100158.00
2023-04-27T03:41:16.196Z,100146.00
2023-04-27T03:43:47.842Z,100154.00
2023-04-27T03:46:30.743Z,100156.00
2023-04-27T03:49:00.884Z,100160.00
2023-04-27T03:51:33.181Z,100162.00
2023-04-27T03:54:02.101Z,100165.00
2023-04-27T03:56:34.289Z,100154.00
2023-04-27T03:59:05.062Z,100162.00
2023-04-27T04:01:36.419Z,100169.00
2023-04-27T04:04:07.339Z,100159.00
2023-04-27T04:06:40.492Z,100180.00
2023-04-27T04:09:18.435Z,100165.00
2023-04-27T04:11:48.390Z,100164.00
2023-04-27T04:14:20.949Z,100178.00
2023-04-27T04:16:50.364Z,100182.00
2023-04-27T04:19:22.460Z,100178.00
2023-04-27T04:21:57.900Z,100172.00
2023-04-27T04:24:29.674Z,100171.00
2023-04-27T04:27:04.764Z,100177.00
2023-04-27T04:29:40.281Z,100189.00
2023-04-27T04:32:22.991Z,100180.00
2023-04-27T04:34:56.396Z,100179.00
2023-04-27T04:37:31.553Z,100188.00
2023-04-27T04:40:00.263Z,100199.00
2023-04-27T04:42:55.840Z,100202.00
2023-04-27T04:45:31.304Z,100205.00
2023-04-27T04:48:07.231Z,100209.00
2023-04-27T04:50:59.178Z,100220.00
2023-04-27T04:53:38.124Z,100208.00
2023-04-27T04:56:11.734Z,100222.00
2023-04-27T04:58:46.482Z,100219.00
2023-04-27T05:01:28.117Z,100227.00
2023-04-27T05:04:05.213Z,100222.00
2023-04-27T05:06:41.308Z,100214.00
2023-04-27T05:09:19.258Z,100213.00
2023-04-27T05:11:57.759Z,100223.00
2023-04-27T05:14:27.047Z,100215.00
2023-04-27T05:17:05.591Z,100226.00
2023-04-27T05:19:35.362Z,100230.00
2023-04-27T05:22:07.006Z,100218.00
2023-04-27T05:24:36.282Z,100238.00
2023-04-27T05:27:06.997Z,100236.00
2023-04-27T05:29:35.723Z,100218.00
2023-04-27T05:32:07.430Z,100234.00
2023-04-27T05:34:36.488Z,100243.00
2023-04-27T05:37:06.010Z,100223.00
2023-04-27T05:39:37.072Z,100236.00
2023-04-27T05:42:10.614Z,100227.00
2023-04-27T05:44:52.175Z,100215.00
2023-04-27T05:47:38.122Z,100222.00
2023-04-27T05:50:08.366Z,100222.00
2023-04-27T05:53:01.579Z,100217.00
2023-04-27T05:55:32.562Z,100208.00
2023-04-27T05:58:08.585Z,100221.00
2023-04-27T06:00:38.489Z,100213.00
2023-04-27T06:03:09.355Z,100211.00
2023-04-27T06:05:38.555Z,100222.00
2023-04-27T06:08:08.090Z,100220.00
2023-04-27T06:10:51.465Z,100220.00
2023-04-27T06:13:21.088Z,100225.00
2023-04-27T06:15:50.016Z,100226.00
2023-04-27T06:24:13.555Z,100238.00
2023-04-27T06:26:42.541Z,100239.00
2023-04-27T06:29:11.501Z,100233.00
2023-04-27T06:34:25.008Z,100242.00
2023-04-27T06:36:53.657Z,100260.00
2023-04-27T06:39:30.612Z,100243.00
2023-04-27T06:42:03.901Z,100244.00
2023-04-27T06:44:36.495Z,100251.00
2023-04-27T06:47:12.158Z,100256.00
2023-04-27T06:49:56.653Z,100235.00
2023-04-27T06:52:34.228Z,100249.00
2023-04-27T06:57:49.113Z,100259.00
2023-04-27T07:00:24.094Z,100255.00
2023-04-27T07:02:53.586Z,100247.00
2023-04-27T07:05:25.296Z,100252.00
2023-04-27T07:07:54.964Z,100269.00
2023-04-27T07:10:23.879Z,100269.00
2023-04-27T07:12:52.650Z,100251.00
2023-04-27T07:15:27.824Z,100264.00
2023-04-27T07:18:00.885Z,100270.00
2023-04-27T07:20:31.166Z,100266.00
2023-04-27T07:23:00.003Z,100261.00
2023-04-27T07:25:28.861Z,100273.00
2023-04-27T07:27:59.976Z,100276.00
2023-04-27T07:30:31.037Z,100252.00
2023-04-27T07:33:01.622Z,100265.00
2023-04-27T07:35:44.894Z,100247.00
2023-04-27T07:38:18.578Z,100261.00
2023-04-27T07:40:54.639Z,100266.00
2023-04-27T07:43:25.998Z,100275.00
2023-04-27T07:45:55.910Z,100274.00
2023-04-27T07:48:29.507Z,100279.00
2023-04-27T07:51:03.380Z,100262.00
2023-04-27T07:53:59.866Z,100267.00
2023-04-27T07:56:36.860Z,100275.00
2023-04-27T07:59:06.609Z,100286.00
2023-04-27T08:01:37.919Z,100291.00
2023-04-27T08:04:08.079Z,100297.00
2023-04-27T08:06:52.157Z,100300.00
2023-04-27T08:09:44.705Z,100285.00
2023-04-27T08:12:13.523Z,100297.00
2023-04-27T08:14:42.231Z,100295.00
2023-04-27T08:17:17.624Z,100294.00
2023-04-27T08:19:46.361Z,100292.00
2023-04-27T08:22:22.049Z,100299.00
2023-04-27T08:24:50.874Z,100298.00
2023-04-27T08:27:23.624Z,100288.00
2023-04-27T08:29:54.853Z,100289.00
2023-04-27T08:32:23.610Z,100296.00
2023-04-27T08:37:41.581Z,100278.00
2023-04-27T08:40:14.442Z,100279.00
2023-04-27T08:42:56.747Z,100286.00
2023-04-27T08:45:36.092Z,100293.00
2023-04-27T08:48:07.564Z,100295.00
2023-04-27T08:50:45.168Z,100308.00
2023-04-27T08:53:22.862Z,100313.00
2023-04-27T08:55:56.392Z,100298.00
2023-04-27T08:58:55.627Z,100295.00
2023-04-27T09:01:26.236Z,100315.00
2023-04-27T09:04:02.658Z,100334.00
2023-04-27T09:07:26.160Z,100318.00
2023-04-27T09:10:05.981Z,100296.00
2023-04-27T09:12:36.581Z,100306.00
2023-04-27T09:15:08.619Z,100315.00
2023-04-27T09:17:39.268Z,100324.00
2023-04-27T09:20:13.565Z,100304.00
2023-04-27T09:22:47.248Z,100333.00
2023-04-27T09:25:40.097Z,100309.00
2023-04-27T09:28:09.853Z,100303.00
2023-04-27T09:30:39.011Z,100300.00
2023-04-27T09:33:08.137Z,100315.00
2023-04-27T09:35:39.381Z,100320.00
2023-04-27T09:38:08.323Z,100348.00
2023-04-27T09:40:51.610Z,100352.00
2023-04-27T09:43:21.997Z,100351.00
2023-04-27T09:45:51.563Z,100344.00
2023-04-27T09:48:22.160Z,100335.00
2023-04-27T09:50:53.343Z,100342.00
2023-04-27T09:53:32.096Z,100352.00
2023-04-27T09:56:31.793Z,100349.00
2023-04-27T09:59:21.783Z,100366.00
2023-04-27T10:02:03.021Z,100352.00
2023-04-27T10:05:04.018Z,100342.00
2023-04-27T10:07:46.932Z,100353.00
2023-04-27T10:10:21.182Z,100353.00
2023-04-27T10:13:03.806Z,100352.00
2023-04-27T10:15:34.691Z,100359.00
2023-04-27T10:18:11.457Z,100347.00
2023-04-27T10:20:41.831Z,100356.00
2023-04-27T10:23:29.032Z,100349.00
2023-04-27T10:26:09.119Z,100335.00
2023-04-27T10:28:43.355Z,100344.00
2023-04-27T10:31:43.390Z,100343.00
2023-04-27T10:34:19.130Z,100369.00
2023-04-27T10:36:50.066Z,100344.00
2023-04-27T10:39:19.956Z,100350.00
2023-04-27T10:41:53.905Z,100336.00
2023-04-27T10:44:45.749Z,100340.00
2023-04-27T10:47:16.995Z,100362.00
2023-04-27T10:49:45.696Z,100359.00
2023-04-27T10:52:16.573Z,100370.00
2023-04-27T10:54:51.097Z,100376.00
2023-04-27T10:57:20.055Z,100367.00
2023-04-27T10:59:59.124Z,100378.00
2023-04-27T11:02:30.152Z,100379.00
2023-04-27T11:05:00.746Z,100370.00
2023-04-27T11:07:32.157Z,100382.00
2023-04-27T11:10:07.174Z,100364.00
2023-04-27T11:12:51.194Z,100388.00
2023-04-27T11:15:23.340Z,100375.00
2023-04-27T11:17:52.171Z,100373.00
2023-04-27T11:20:30.446Z,100372.00
2023-04-27T11:23:02.731Z,100378.00
2023-04-27T11:25:31.617Z,100389.00
2023-04-27T11:28:17.989Z,100395.00
2023-04-27T11:30:49.380Z,100399.00
2023-04-27T11:33:30.854Z,100399.00
2023-04-27T11:36:01.620Z,100421.00
2023-04-27T11:38:36.096Z,100409.00
2023-04-27T11:41:08.864Z,100410.00
2023-04-27T11:43:42.196Z,100400.00
2023-04-27T11:46:13.425Z,100390.00
2023-04-27T11:48:42.445Z,100388.00
2023-04-27T11:51:23.704Z,100395.00
2023-04-27T11:53:56.874Z,100400.00
2023-04-27T11:56:39.208Z,100415.00
2023-04-27T11:59:28.633Z,100415.00
2023-04-27T12:02:08.387Z,100427.00
2023-04-27T12:04:37.603Z,100457.00
2023-04-27T12:07:06.665Z,100443.00
2023-04-27T12:09:37.422Z,100449.00
2023-04-27T12:12:07.225Z,100457.00
2023-04-27T12:14:36.948Z,100438.00
2023-04-27T12:17:07.733Z,100477.00
2023-04-27T12:19:59.481Z,100495.00
2023-04-27T12:22:33.506Z,100487.00
2023-04-27T12:25:09.981Z,100486.00
2023-04-27T12:27:39.376Z,100487.00
2023-04-27T12:30:09.776Z,100496.00
2023-04-27T12:32:41.522Z,100493.00
2023-04-27T12:35:16.556Z,100480.00
2023-04-27T12:37:49.296Z,100476.00
2023-04-27T12:40:26.978Z,100481.00
2023-04-27T12:42:55.942Z,100439.00
2023-04-27T12:45:25.701Z,100469.00
2023-04-27T12:48:03.174Z,100496.00
2023-04-27T12:50:46.572Z,100489.00
2023-04-27T12:53:16.949Z,100476.00
2023-04-27T12:56:16.882Z,100491.00
2023-04-27T13:01:43.250Z,100495.00
2023-04-27T13:04:22.258Z,100475.00
2023-04-27T13:06:51.518Z,100509.00
2023-04-27T13:09:20.172Z,100501.00
2023-04-27T13:11:49.062Z,100488.00
2023-04-27T13:14:17.816Z,100497.00
2023-04-27T13:17:04.396Z,100513.00
2023-04-27T13:19:34.563Z,100514.00
2023-04-27T13:22:04.532Z,100504.00
2023-04-27T13:24:33.357Z,100490.00
2023-04-27T13:27:02.179Z,100506.00
2023-04-27T13:29:31.049Z,100491.00
2023-04-27T13:32:01.719Z,100519.00
2023-04-27T13:34:30.623Z,100509.00
2023-04-27T13:37:17.802Z,100505.00
2023-04-27T13:39:47.569Z,100508.00
2023-04-27T13:42:16.914Z,100518.00
2023-04-27T13:45:15.584Z,100515.00
2023-04-27T13:47:59.075Z,100520.00
2023-04-27T13:50:37.518Z,100536.00
2023-04-27T13:53:09.005Z,100521.00
2023-04-27T13:55:37.762Z,100518.00
2023-04-27T13:58:25.616Z,100499.00
2023-04-27T14:00:55.169Z,100510.00
2023-04-27T14:03:33.784Z,100501.00
2023-04-27T14:06:07.584Z,100506.00
2023-04-27T14:08:38.068Z,100522.00
2023-04-27T14:11:11.842Z,100489.00
2023-04-27T14:13:40.657Z,100506.00
2023-04-27T14:16:10.082Z,100517.00
2023-04-27T14:18:38.768Z,100529.00
2023-04-27T14:21:07.742Z,100537.00
2023-04-27T14:23:38.126Z,100538.00
2023-04-27T14:26:15.957Z,100527.00
2023-04-27T14:28:45.247Z,100545.00
2023-04-27T14:31:14.378Z,100539.00
2023-04-27T14:33:44.916Z,100522.00
2023-04-27T14:36:13.756Z,100550.00
2023-04-27T14:38:52.224Z,100551.00
2023-04-27T14:41:21.091Z,100571.00
2023-04-27T14:43:49.856Z,100567.00
2023-04-27T14:46:21.157Z,100557.00
2023-04-27T14:48:51.429Z,100566.00
2023-04-27T14:51:20.294Z,100563.00
2023-04-27T14:53:55.453Z,100564.00
2023-04-27T14:56:24.378Z,100573.00
2023-04-27T14:58:53.162Z,100565.00
2023-04-27T15:01:22.466Z,100573.00
2023-04-27T15:04:05.229Z,100582.00
2023-04-27T15:06:40.101Z,100569.00
2023-04-27T15:09:16.910Z,100573.00
2023-04-27T15:11:55.878Z,100579.00
2023-04-27T15:14:38.602Z,100597.00
2023-04-27T15:17:07.988Z,100592.00
2023-04-27T15:19:37.650Z,100606.00
2023-04-27T15:22:07.237Z,100615.00
2023-04-27T15:25:01.257Z,100598.00
2023-04-27T15:27:30.385Z,100615.00
2023-04-27T15:30:00.560Z,100621.00
2023-04-27T15:35:28.643Z,100627.00
2023-04-27T15:37:57.484Z,100623.00
2023-04-27T15:40:28.542Z,100620.00
2023-04-27T15:42:57.193Z,100614.00
2023-04-27T15:45:26.786Z,100620.00
2023-04-27T15:48:19.479Z,100626.00
2023-04-27T15:51:01.936Z,100616.00
2023-04-27T15:53:58.664Z,100642.00
2023-04-27T15:56:30.866Z,100641.00
2023-04-27T15:59:09.239Z,100642.00
2023-04-27T16:01:46.676Z,100630.00
2023-04-27T16:04:16.809Z,100641.00
2023-04-27T16:06:46.284Z,100641.00
2023-04-27T16:09:15.374Z,100651.00
2023-04-27T16:11:45.857Z,100661.00
2023-04-27T16:14:14.767Z,100659.00
2023-04-27T16:16:46.218Z,100669.00
2023-04-27T16:19:18.142Z,100668.00
2023-04-27T16:21:47.595Z,100644.00
2023-04-27T16:24:16.410Z,100645.00
2023-04-27T16:26:46.823Z,100652.00
2023-04-27T16:29:15.791Z,100664.00
2023-04-27T16:31:47.690Z,100647.00
2023-04-27T16:34:16.411Z,100635.00
2023-04-27T16:36:47.142Z,100626.00
2023-04-27T16:39:16.402Z,100649.00
2023-04-27T16:41:47.248Z,100648.00
2023-04-27T16:44:17.499Z,100661.00
2023-04-27T16:46:58.337Z,100653.00
2023-04-27T16:49:27.165Z,100669.00
2023-04-27T16:51:56.368Z,100663.00
2023-04-27T16:54:26.888Z,100647.00
2023-04-27T16:57:08.503Z,100674.00
2023-04-27T16:59:37.688Z,100688.00
2023-04-27T17:02:21.001Z,100669.00
2023-04-27T17:04:53.336Z,100675.00
2023-04-27T17:07:28.676Z,100659.00
2023-04-27T17:10:09.896Z,100660.00
2023-04-27T17:12:42.549Z,100653.00
2023-04-27T17:15:13.989Z,100659.00
2023-04-27T17:17:47.216Z,100656.00
2023-04-27T17:20:25.621Z,100654.00
2023-04-27T17:22:54.326Z,100640.00
2023-04-27T17:25:24.313Z,100646.00
2023-04-27T17:28:01.146Z,100642.00
2023-04-27T17:30:31.106Z,100652.00
2023-04-27T17:33:02.106Z,100651.00
2023-04-27T17:35:33.648Z,100655.00
2023-04-27T17:38:02.676Z,100649.00
2023-04-27T17:40:33.425Z,100640.00
2023-04-27T17:43:03.759Z,100649.00
2023-04-27T17:45:33.012Z,100666.00
2023-04-27T17:48:02.745Z,100664.00
2023-04-27T17:50:31.800Z,100660.00
2023-04-27T17:53:00.616Z,100660.00
2023-04-27T17:55:29.583Z,100665.00
2023-04-27T17:57:58.320Z,100647.00
2023-04-27T18:00:30.025Z,100650.00
2023-04-27T18:02:59.799Z,100665.00
2023-04-27T18:05:28.804Z,100670.00
2023-04-27T18:08:01.760Z,100691.00
2023-04-27T18:10:34.905Z,100707.00
2023-04-27T18:13:03.863Z,100733.00
2023-04-27T18:15:34.007Z,100751.00
2023-04-27T18:18:03.407Z,100763.00
2023-04-27T18:20:33.150Z,100747.00
2023-04-27T18:23:01.821Z,100757.00
2023-04-27T18:25:31.790Z,100751.00
2023-04-27T18:28:02.267Z,100755.00
2023-04-27T18:30:33.730Z,100765.00
2023-04-27T18:33:08.733Z,100752.00
2023-04-27T18:35:38.277Z,100779.00
2023-04-27T18:38:07.781Z,100759.00
2023-04-27T18:40:53.251Z,100756.00
2023-04-27T18:43:21.974Z,100762.00
2023-04-27T18:45:55.365Z,100753.00
2023-04-27T18:48:29.217Z,100759.00
2023-04-27T18:50:59.118Z,100747.00
2023-04-27T18:53:28.984Z,100753.00
2023-04-27T18:56:02.654Z,100731.00
2023-04-27T18:58:31.332Z,100741.00
2023-04-27T19:01:02.258Z,100731.00
2023-04-27T19:03:32.058Z,100731.00
2023-04-27T19:06:03.551Z,100721.00
2023-04-27T19:08:32.924Z,100727.00
2023-04-27T19:11:03.171Z,100721.00
2023-04-27T19:13:43.979Z,100727.00
2023-04-27T19:16:18.378Z,100755.00
2023-04-27T19:18:48.972Z,100764.00
2023-04-27T19:21:18.004Z,100757.00
2023-04-27T19:23:55.789Z,100767.00
2023-04-27T19:26:24.622Z,100780.00
2023-04-27T19:28:54.819Z,100782.00
2023-04-27T19:31:25.121Z,100798.00
2023-04-27T19:33:55.545Z,100795.00
2023-04-27T19:36:26.694Z,100768.00
2023-04-27T19:38:55.771Z,100801.00
2023-04-27T19:41:31.508Z,100793.00
2023-04-27T19:44:00.183Z,100788.00
2023-04-27T19:46:30.464Z,100781.00
2023-04-27T19:48:59.384Z,100770.00
2023-04-27T19:51:29.871Z,100782.00
2023-04-27T19:54:00.761Z,100756.00
2023-04-27T19:56:30.309Z,100763.00
2023-04-27T19:59:03.040Z,100783.00
2023-04-27T20:01:33.163Z,100765.00
2023-04-27T20:04:02.428Z,100764.00
2023-04-27T20:06:32.395Z,100761.00
2023-04-27T20:09:01.241Z,100748.00
2023-04-27T20:11:30.254Z,100773.00
2023-04-27T20:13:59.140Z,100789.00
2023-04-27T20:16:30.739Z,100781.00
2023-04-27T20:19:07.047Z,100778.00
2023-04-27T20:21:45.585Z,100791.00
2023-04-27T20:24:14.579Z,100763.00
2023-04-27T20:26:45.481Z,100772.00
2023-04-27T20:29:14.222Z,100776.00
2023-04-27T20:31:42.993Z,100791.00
2023-04-27T20:34:13.917Z,100785.00
2023-04-27T20:37:09.562Z,100794.00
2023-04-27T20:39:48.596Z,100786.00
2023-04-27T20:42:18.169Z,100792.00
2023-04-27T20:44:47.218Z,100793.00
2023-04-27T20:47:16.258Z,100797.00
2023-04-27T20:50:07.892Z,100797.00
2023-04-27T20:52:38.056Z,100805.00
2023-04-27T20:55:07.895Z,100797.00
2023-04-27T20:57:37.193Z,100806.00
2023-04-27T21:00:09.284Z,100787.00
2023-04-27T21:02:48.220Z,100777.00
2023-04-27T21:05:31.632Z,100785.00
2023-04-27T21:08:01.700Z,100787.00
2023-04-27T21:10:31.797Z,100801.00
2023-04-27T21:13:12.014Z,100791.00
2023-04-27T21:15:41.849Z,100809.00
2023-04-27T21:18:18.874Z,100782.00
2023-04-27T21:24:04.144Z,100802.00
2023-04-27T21:26:39.803Z,100801.00
2023-04-27T21:29:28.837Z,100794.00
2023-04-27T21:31:58.987Z,100793.00
2023-04-27T21:34:33.257Z,100798.00
2023-04-27T21:37:03.639Z,100810.00
2023-04-27T21:39:49.649Z,100811.00
2023-04-27T21:42:25.042Z,100807.00
2023-04-27T21:44:58.559Z,100792.00
2023-04-27T21:47:27.398Z,100773.00
2023-04-27T21:49:56.182Z,100768.00
2023-04-27T21:52:29.069Z,100795.00
2023-04-27T21:54:58.256Z,100795.00
2023-04-27T21:57:26.993Z,100785.00
2023-04-27T21:59:56.876Z,100777.00
2023-04-27T22:02:28.352Z,100789.00
2023-04-27T22:05:02.595Z,100788.00
2023-04-27T22:07:44.979Z,100802.00
2023-04-27T22:10:15.587Z,100788.00
2023-04-27T22:12:47.228Z,100783.00
2023-04-27T22:15:21.507Z,100800.00
2023-04-27T22:17:51.369Z,100793.00
2023-04-27T22:20:21.061Z,100797.00
2023-04-27T22:22:51.416Z,100784.00
2023-04-27T22:25:26.019Z,100781.00
2023-04-27T22:27:55.257Z,100791.00
2023-04-27T22:30:34.177Z,100809.00
2023-04-27T22:33:06.789Z,100812.00
2023-04-27T22:35:48.739Z,100813.00
2023-04-27T22:38:21.655Z,100812.00
2023-04-27T22:41:00.334Z,100814.00
2023-04-27T22:43:30.363Z,100806.00
2023-04-27T22:46:02.279Z,100806.00
2023-04-27T22:48:34.904Z,100806.00
2023-04-27T22:51:12.296Z,100809.00
2023-04-27T22:56:32.392Z,100813.00
2023-04-27T22:59:12.132Z,100807.00
2023-04-27T23:01:41.606Z,100807.00
2023-04-27T23:04:10.678Z,100793.00
2023-04-27T23:06:43.692Z,100803.00
2023-04-27T23:12:26.875Z,100802.00
2023-04-27T23:15:00.909Z,100803.00
2023-04-27T23:17:32.778Z,100808.00
2023-04-27T23:20:28.259Z,100815.00
2023-04-27T23:23:12.641Z,100824.00
2023-04-27T23:26:02.553Z,100820.00
2023-04-27T23:28:45.793Z,100820.00
2023-04-27T23:31:20.005Z,100820.00
2023-04-27T23:33:53.386Z,100822.00
2023-04-27T23:36:23.039Z,100817.00
2023-04-27T23:39:00.017Z,100820.00
2023-04-27T23:41:34.573Z,100823.00
2023-04-27T23:44:05.852Z,100814.00
2023-04-27T23:46:42.225Z,100822.00
2023-04-27T23:49:13.322Z,100823.00
2023-04-27T23:51:44.608Z,100825.00
2023-04-27T23:54:15.618Z,100817.00
2023-04-27T23:56:47.700Z,100813.00
2023-04-27T23:59:22.296Z,100823.00
